Time;durP1;ratioP1;P1;durP2;ratioP2;P2;SDS_P1;SDS_P2;PMS_P1;PMS_P2;Temp;Humidity;BMP_temperature;BMP_pressure;BME280_temperature;BME280_humidity;BME280_pressure;Samples;Min_cycle;Max_cycle;Signal;HPM_P1;HPM_P2
2022/04/05 00:02:40;;;;;;;9.70;6.75;;;;;;;6.28;81.47;100602.50;10416030;28;20041;-72
2022/04/05 00:07:41;;;;;;;11.25;5.82;;;;;;;6.44;81.50;100595.88;10414707;28;20129;-72
2022/04/05 00:12:42;;;;;;;10.23;5.57;;;;;;;5.96;81.22;100498.97;10414383;28;20559;-72
2022/04/05 00:17:43;;;;;;;9.43;5.50;;;;;;;6.41;81.29;100578.50;10414324;28;20037;-72
2022/04/05 00:22:43;;;;;;;11.20;5.25;;;;;;;6.20;81.69;100535.53;10414011;28;20037;-72
2022/04/05 00:27:45;;;;;;;7.72;4.88;;;;;;;6.69;82.26;100565.47;10414225;28;20099;-72
2022/04/05 00:32:46;;;;;;;8.55;4.80;;;;;;;6.58;81.60;100537.38;10414121;28;20043;-72
2022/04/05 00:37:47;;;;;;;8.48;5.63;;;;;;;6.82;81.30;100537.84;10413671;28;20124;-73
2022/04/05 00:42:48;;;;;;;10.90;5.63;;;;;;;6.33;80.56;100428.75;10413952;28;20073;-72
2022/04/05 00:47:51;;;;;;;12.20;5.55;;;;;;;7.05;80.96;100513.78;10414819;28;20069;-72
2022/04/05 00:52:52;;;;;;;11.82;5.00;;;;;;;7.38;80.48;100554.75;10454985;28;20064;-72
2022/04/05 00:57:55;;;;;;;13.85;5.50;;;;;;;7.39;81.01;100555.56;10454448;28;20041;-72
2022/04/05 01:02:58;;;;;;;10.88;5.03;;;;;;;7.41;80.37;100525.38;10454555;28;20047;-72
2022/04/05 01:08:02;;;;;;;7.78;5.00;;;;;;;7.63;81.33;100549.81;10454305;28;20130;-72
2022/04/05 01:13:02;;;;;;;9.23;5.40;;;;;;;7.00;80.43;100432.34;10454657;28;20456;-72
2022/04/05 01:18:03;;;;;;;8.85;5.55;;;;;;;7.74;80.73;100562.84;10453492;28;20045;-72
2022/04/05 01:23:04;;;;;;;11.85;5.60;;;;;;;7.19;80.45;100446.47;10454195;28;20473;-72
2022/04/05 01:28:05;;;;;;;10.20;4.95;;;;;;;7.88;80.58;100545.69;10453940;28;20140;-72
2022/04/05 01:33:07;;;;;;;10.00;5.18;;;;;;;7.87;80.31;100557.28;10453412;28;20041;-72
2022/04/05 01:38:09;;;;;;;6.22;4.50;;;;;;;7.87;80.36;100552.81;10454356;28;20044;-72
2022/04/05 01:43:10;;;;;;;9.82;5.43;;;;;;;7.49;80.07;100479.75;10461537;28;20076;-72
2022/04/05 01:48:10;;;;;;;14.82;5.60;;;;;;;7.98;79.78;100539.38;10460883;28;20080;-72
2022/04/05 01:53:11;;;;;;;11.95;5.43;;;;;;;7.74;80.26;100508.16;10461188;28;20065;-72
2022/04/05 01:58:12;;;;;;;9.45;5.68;;;;;;;6.12;79.72;100264.53;10459279;28;20047;-72
2022/04/05 02:03:13;;;;;;;13.15;4.95;;;;;;;7.15;80.32;100418.66;10461108;28;20063;-72
2022/04/05 02:08:14;;;;;;;22.40;5.57;;;;;;;7.67;79.98;100480.63;10461143;28;20484;-72
2022/04/05 02:13:15;;;;;;;10.63;5.07;;;;;;;7.31;80.01;100425.00;10460056;28;20040;-72
2022/04/05 02:18:16;;;;;;;8.18;4.82;;;;;;;7.82;80.09;100511.91;10461112;28;20048;-72
2022/04/05 02:23:17;;;;;;;9.13;4.50;;;;;;;7.83;80.48;100516.19;10459906;28;20037;-72
2022/04/05 02:28:17;;;;;;;10.45;5.20;;;;;;;7.68;81.12;100519.31;10460230;28;20738;-72
2022/04/05 02:33:18;;;;;;;16.42;5.75;;;;;;;7.29;80.90;100474.50;10459241;28;20516;-72
2022/04/05 02:38:19;;;;;;;14.90;5.88;;;;;;;7.28;81.96;100466.72;10452761;28;20033;-72
2022/04/05 02:43:20;;;;;;;10.82;5.22;;;;;;;6.62;81.87;100373.34;10428614;28;20045;-72
2022/04/05 02:48:25;;;;;;;15.07;6.40;;;;;;;7.45;82.83;100504.78;10444508;28;20045;-72
2022/04/05 02:53:26;;;;;;;13.88;5.43;;;;;;;7.34;81.69;100492.59;10425724;28;20119;-72
2022/04/05 02:58:26;;;;;;;13.05;6.03;;;;;;;7.47;82.15;100513.41;10444953;28;20041;-73
2022/04/05 03:03:27;;;;;;;12.13;5.15;;;;;;;7.42;81.84;100510.34;10444096;28;20045;-72
2022/04/05 03:08:28;;;;;;;10.93;5.30;;;;;;;6.78;81.44;100412.34;10444285;28;20052;-72
2022/04/05 03:13:29;;;;;;;11.80;5.28;;;;;;;7.36;81.87;100503.00;10447339;28;20045;-71
2022/04/05 03:18:30;;;;;;;8.05;5.00;;;;;;;7.32;81.41;100487.44;10442178;28;20505;-73
2022/04/05 03:23:31;;;;;;;13.48;4.75;;;;;;;7.67;81.27;100540.63;10434146;28;20045;-72
2022/04/05 03:28:32;;;;;;;12.18;5.43;;;;;;;7.59;81.62;100501.69;10414278;28;20068;-72
2022/04/05 03:33:33;;;;;;;15.27;5.35;;;;;;;7.47;80.71;100473.75;10416402;28;20523;-72
2022/04/05 03:38:34;;;;;;;9.05;4.68;;;;;;;6.72;80.25;100352.19;10416391;28;20044;-73
2022/04/05 03:43:35;;;;;;;14.43;5.03;;;;;;;7.27;80.74;100426.28;10415984;28;20037;-72
2022/04/05 03:48:35;;;;;;;15.73;5.80;;;;;;;7.79;79.96;100497.16;10415797;28;20042;-73
2022/04/05 03:53:37;;;;;;;12.15;5.10;;;;;;;7.37;79.86;100409.53;10416093;28;20089;-72
2022/04/05 03:58:38;;;;;;;11.43;4.55;;;;;;;7.81;79.62;100460.81;10391906;28;20504;-77
2022/04/05 04:03:38;;;;;;;15.63;4.40;;;;;;;8.10;80.18;100505.63;10415644;28;20045;-74
2022/04/05 04:08:39;;;;;;;13.63;4.60;;;;;;;7.43;79.90;100382.53;10397066;28;20034;-75
2022/04/05 04:13:40;;;;;;;16.58;4.40;;;;;;;8.17;79.72;100463.53;10413583;28;20046;-76
2022/04/05 04:18:41;;;;;;;17.92;4.10;;;;;;;7.61;79.52;100349.03;10414081;28;20037;-75
2022/04/05 04:23:41;;;;;;;18.17;3.83;;;;;;;8.51;79.12;100447.84;10416622;28;20493;-74
2022/04/05 04:28:42;;;;;;;14.35;3.17;;;;;;;8.63;79.35;100401.59;10446978;28;20389;-74
2022/04/05 04:33:44;;;;;;;16.52;3.53;;;;;;;9.35;78.25;100423.41;10443540;28;20037;-74
2022/04/05 04:38:45;;;;;;;11.85;3.72;;;;;;;10.14;76.54;100428.50;10414555;28;20135;-77
2022/04/05 04:43:46;;;;;;;8.65;2.90;;;;;;;10.36;74.00;100373.97;10412613;28;20064;-74
2022/04/05 04:48:47;;;;;;;23.40;4.55;;;;;;;10.26;74.28;100400.63;10424919;28;20040;-73
2022/04/05 04:53:48;;;;;;;24.58;3.50;;;;;;;9.94;72.90;100404.09;10454739;28;20052;-73
2022/04/05 04:58:49;;;;;;;11.65;3.25;;;;;;;9.63;74.28;100414.41;10483947;28;20043;-74
2022/04/05 05:03:51;;;;;;;13.63;3.45;;;;;;;8.65;75.04;100271.69;10494886;28;20045;-74
2022/04/05 05:08:52;;;;;;;226.63;104.53;;;;;;;9.24;74.72;100393.69;10496899;28;20127;-74
2022/04/05 05:13:54;;;;;;;150.50;73.13;;;;;;;8.09;74.12;100218.22;10495376;28;20131;-74
2022/04/05 05:18:55;;;;;;;50.55;24.35;;;;;;;9.08;73.82;100384.66;10495381;28;20134;-74
2022/04/05 05:23:56;;;;;;;139.77;60.08;;;;;;;8.81;73.60;100347.75;10487248;28;20115;-74
2022/04/05 05:28:56;;;;;;;18.85;7.93;;;;;;;7.85;73.38;100195.06;10454431;28;20044;-74
2022/04/05 05:33:57;;;;;;;11.60;4.78;;;;;;;8.45;73.27;100302.84;10454621;28;20408;-74
2022/04/05 05:38:58;;;;;;;119.13;53.33;;;;;;;9.15;73.66;100414.03;10454041;28;20032;-74
2022/04/05 05:43:59;;;;;;;153.50;65.10;;;;;;;8.60;73.74;100326.94;10454032;28;20082;-74
2022/04/05 05:48:59;;;;;;;143.82;58.38;;;;;;;7.72;73.11;100190.19;10454058;28;20044;-74
2022/04/05 05:54:00;;;;;;;100.90;41.58;;;;;;;8.50;73.19;100326.22;10453804;28;20053;-74
2022/04/05 05:59:01;;;;;;;60.03;25.02;;;;;;;8.81;73.00;100411.34;10453002;28;20044;-74
2022/04/05 06:04:02;;;;;;;20.65;9.18;;;;;;;8.81;73.05;100409.50;10454143;28;20029;-74
2022/04/05 06:09:03;;;;;;;24.80;11.02;;;;;;;8.94;73.03;100432.94;10452935;28;20140;-74
2022/04/05 06:14:03;;;;;;;15.80;6.82;;;;;;;8.11;73.71;100285.03;10453817;28;20115;-74
2022/04/05 06:19:04;;;;;;;12.57;5.22;;;;;;;8.93;73.65;100418.03;10452673;28;20072;-74
2022/04/05 06:24:05;;;;;;;17.15;8.50;;;;;;;9.16;73.12;100446.69;10452560;28;20120;-74
2022/04/05 06:29:06;;;;;;;25.25;11.35;;;;;;;9.12;72.39;100420.50;10458630;28;20045;-74
2022/04/05 06:34:07;;;;;;;17.83;7.47;;;;;;;9.28;72.13;100429.53;10460422;28;20424;-74
2022/04/05 06:39:07;;;;;;;10.20;5.13;;;;;;;8.76;71.71;100315.59;10459600;28;20052;-74
2022/04/05 06:44:08;;;;;;;9.88;4.60;;;;;;;8.71;71.68;100300.19;10460494;28;20030;-74
2022/04/05 06:49:09;;;;;;;6.25;4.40;;;;;;;9.56;70.29;100433.63;10459539;28;20052;-73
2022/04/05 06:54:10;;;;;;;13.60;7.65;;;;;;;8.80;69.08;100304.56;10459943;28;20060;-73
2022/04/05 06:59:11;;;;;;;8.05;4.72;;;;;;;8.15;68.04;100207.00;10458472;28;20055;-73
2022/04/05 07:04:12;;;;;;;8.20;4.63;;;;;;;9.34;67.00;100411.16;10458476;28;20036;-73
2022/04/05 07:09:12;;;;;;;7.03;4.93;;;;;;;9.51;67.54;100443.91;10459632;28;20435;-73
2022/04/05 07:14:13;;;;;;;6.78;4.60;;;;;;;9.53;67.82;100456.97;10458716;28;20090;-73
2022/04/05 07:19:14;;;;;;;12.55;5.70;;;;;;;8.75;67.66;100314.78;10458153;28;20519;-73
2022/04/05 07:24:15;;;;;;;16.70;8.75;;;;;;;9.53;67.68;100446.38;10457734;28;20064;-73
2022/04/05 07:29:16;;;;;;;8.98;5.55;;;;;;;9.47;67.85;100434.56;10458284;28;20044;-73
2022/04/05 07:34:16;;;;;;;18.30;7.75;;;;;;;8.88;67.66;100324.94;10457293;28;20500;-73
2022/04/05 07:39:21;;;;;;;39.10;14.52;;;;;;;9.55;68.07;100434.63;10458335;28;20064;-74
2022/04/05 07:44:22;;;;;;;16.08;8.90;;;;;;;9.36;67.40;100429.53;10456965;28;20040;-73
2022/04/05 07:49:23;;;;;;;23.42;9.60;;;;;;;9.06;67.80;100375.22;10457504;28;20461;-74
2022/04/05 07:54:24;;;;;;;11.02;6.13;;;;;;;9.44;67.87;100426.94;10457430;28;20060;-74
2022/04/05 07:59:24;;;;;;;11.10;6.68;;;;;;;9.32;67.61;100414.94;10456496;28;20036;-73
2022/04/05 08:04:25;;;;;;;11.82;6.88;;;;;;;9.41;67.87;100419.31;10456686;28;20041;-74
2022/04/05 08:09:26;;;;;;;11.98;7.03;;;;;;;8.68;68.38;100311.94;10456514;28;20045;-73
2022/04/05 08:14:29;;;;;;;41.53;17.60;;;;;;;9.45;68.72;100433.91;10455741;28;20045;-74
2022/04/05 08:19:30;;;;;;;9.63;5.93;;;;;;;9.37;69.66;100440.00;10456646;28;20059;-73
2022/04/05 08:24:31;;;;;;;12.02;5.95;;;;;;;9.20;71.12;100435.59;10456978;28;20040;-74
2022/04/05 08:29:32;;;;;;;9.30;5.35;;;;;;;8.41;73.46;100333.28;10455757;28;20044;-74
2022/04/05 08:34:33;;;;;;;8.93;6.05;;;;;;;8.76;75.37;100438.28;10455474;28;20539;-75
2022/04/05 08:39:35;;;;;;;12.18;5.03;;;;;;;7.78;76.83;100320.97;10456007;28;20496;-74
2022/04/05 08:44:36;;;;;;;8.07;6.32;;;;;;;7.70;78.86;100361.34;10456015;28;20119;-74
2022/04/05 08:49:37;;;;;;;11.63;7.55;;;;;;;7.36;81.13;100326.78;10454285;28;20095;-74
2022/04/05 08:54:38;;;;;;;13.93;6.55;;;;;;;7.97;81.44;100468.09;10455365;28;20088;-74
2022/04/05 08:59:39;;;;;;;14.70;6.78;;;;;;;7.77;82.88;100476.13;10454315;28;20068;-74
2022/04/05 09:04:40;;;;;;;16.40;7.75;;;;;;;7.62;84.17;100484.69;10455383;28;20068;-73
2022/04/05 09:09:41;;;;;;;13.93;7.72;;;;;;;7.49;85.72;100485.03;10453933;28;20052;-74
2022/04/05 09:14:42;;;;;;;10.95;6.25;;;;;;;7.41;85.72;100498.94;10454357;28;20098;-73
2022/04/05 09:19:48;;;;;;;26.65;12.88;;;;;;;7.35;86.85;100533.06;10455044;28;20072;-74
2022/04/05 09:24:49;;;;;;;14.00;9.70;;;;;;;6.90;87.97;100479.03;10454896;28;20044;-74
2022/04/05 09:29:51;;;;;;;12.40;8.07;;;;;;;6.95;89.30;100497.13;10454402;28;20044;-74
2022/04/05 09:34:52;;;;;;;9.00;6.78;;;;;;;7.19;89.55;100538.94;10453419;28;20059;-74
2022/04/05 09:39:54;;;;;;;10.75;6.38;;;;;;;6.54;91.31;100470.03;10454170;28;20044;-74
2022/04/05 09:44:54;;;;;;;7.85;6.05;;;;;;;5.88;91.66;100371.25;10453554;28;20381;-73
2022/04/05 09:50:02;;;;;;;22.27;6.85;;;;;;;6.75;93.21;100520.03;10454175;28;20041;-73
2022/04/05 09:55:12;;;;;;;8.50;5.85;;;;;;;6.81;94.52;100536.16;10454556;28;20065;-73
2022/04/05 10:00:13;;;;;;;8.93;5.97;;;;;;;6.67;93.52;100554.22;10454373;28;20052;-73
2022/04/05 10:05:18;;;;;;;8.43;5.80;;;;;;;6.57;94.89;100557.69;10443646;28;20476;-73
2022/04/05 10:10:19;;;;;;;8.05;6.18;;;;;;;5.52;94.15;100392.94;10461388;28;20456;-73
2022/04/05 10:15:21;;;;;;;9.50;6.53;;;;;;;6.05;93.33;100499.00;10460616;28;20511;-73
2022/04/05 10:20:23;;;;;;;7.65;5.63;;;;;;;6.44;93.76;100562.38;10461373;28;20412;-73
2022/04/05 10:25:25;;;;;;;5.95;3.20;;;;;;;6.39;93.73;100565.41;10460135;28;20041;-73
2022/04/05 10:30:33;;;;;;;3.33;2.15;;;;;;;6.30;94.57;100560.97;10460577;28;20132;-73
2022/04/05 10:35:50;;;;;;;2.10;1.23;;;;;;;6.13;94.85;100540.50;10459864;28;20068;-73
2022/04/05 10:41:13;;;;;;;3.95;1.20;;;;;;;6.23;96.68;100562.47;10460061;28;20041;-73
2022/04/05 10:46:34;;;;;;;7.85;1.27;;;;;;;5.99;94.22;100541.72;10459944;28;20070;-73
2022/04/05 10:52:17;;;;;;;2.67;1.20;;;;;;;6.17;99.02;100589.41;10459038;28;20084;-73
2022/04/05 10:57:32;;;;;;;3.22;1.00;;;;;;;6.15;95.39;100583.41;10453465;28;20064;-73
2022/04/05 11:02:51;;;;;;;1.63;0.70;;;;;;;6.14;96.61;100582.59;10459442;28;20037;-73
2022/04/05 11:07:52;;;;;;;1.42;0.63;;;;;;;5.21;96.81;100453.56;10459309;28;20149;-73
2022/04/05 11:13:40;;;;;;;1.85;0.88;;;;;;;6.05;100.00;100593.94;10458192;28;20135;-73
2022/04/05 11:18:41;;;;;;;2.83;0.90;;;;;;;5.97;97.92;100611.38;10452456;28;20053;-73
2022/04/05 11:23:51;;;;;;;1.50;0.80;;;;;;;5.27;98.92;100487.28;10458623;28;20041;-73
2022/04/05 11:28:53;;;;;;;1.92;0.90;;;;;;;5.86;98.62;100575.34;10458750;28;20041;-73
2022/04/05 11:33:54;;;;;;;1.40;0.88;;;;;;;5.91;99.30;100597.72;10458162;28;20104;-73
2022/04/05 11:38:58;;;;;;;1.13;0.70;;;;;;;5.99;98.05;100615.56;10458002;28;20045;-73
2022/04/05 11:44:01;;;;;;;2.67;1.07;;;;;;;5.92;98.39;100619.63;10457114;28;20154;-73
2022/04/05 11:49:11;;;;;;;1.75;1.08;;;;;;;5.77;99.74;100582.22;10457518;28;20275;-73
2022/04/05 11:54:23;;;;;;;1.92;0.90;;;;;;;6.06;99.94;100610.59;10456635;28;20420;-73
2022/04/05 11:59:27;;;;;;;1.95;0.68;;;;;;;5.35;99.54;100479.53;10457853;28;20511;-73
2022/04/05 12:04:32;;;;;;;1.92;0.90;;;;;;;6.26;99.67;100614.97;10457342;28;20488;-73
2022/04/05 12:09:34;;;;;;;3.10;0.93;;;;;;;6.30;99.64;100608.44;10456767;28;20037;-73
2022/04/05 12:14:35;;;;;;;2.00;1.00;;;;;;;6.29;99.35;100611.25;10455774;28;20415;-73
2022/04/05 12:19:39;;;;;;;5.60;3.70;;;;;;;6.36;99.18;100605.28;10456258;28;20043;-73
2022/04/05 12:24:53;;;;;;;3.47;1.55;;;;;;;6.33;98.24;100610.00;10455914;28;20037;-73
2022/04/05 12:29:58;;;;;;;4.70;1.07;;;;;;;6.44;99.06;100615.16;10455622;28;20500;-73
2022/04/05 12:34:59;;;;;;;2.55;1.40;;;;;;;6.52;99.05;100612.69;10448481;28;20484;-73
2022/04/05 12:40:00;;;;;;;2.03;1.15;;;;;;;6.45;99.08;100603.63;10417148;28;20048;-73
2022/04/05 12:45:01;;;;;;;2.90;1.50;;;;;;;6.43;99.84;100602.94;10441595;28;20479;-74
2022/04/05 12:50:04;;;;;;;2.95;1.50;;;;;;;6.24;99.49;100585.25;10429016;28;20072;-74
2022/04/05 12:55:18;;;;;;;2.35;1.30;;;;;;;6.51;99.56;100620.75;10451757;28;20088;-74
2022/04/05 13:00:28;;;;;;;1.77;0.90;;;;;;;6.37;99.95;100588.50;10444306;28;20103;-73
2022/04/05 13:10:49;;;;;;;1.65;0.93;;;;;;;6.35;100.00;100595.69;10430634;28;20075;-75
2022/04/05 13:16:00;;;;;;;2.83;0.90;;;;;;;5.86;99.80;100502.38;10453800;28;20053;-74
2022/04/05 13:21:07;;;;;;;1.80;1.02;;;;;;;6.51;100.00;100608.38;10451992;28;20094;-71
2022/04/05 13:26:24;;;;;;;1.55;0.95;;;;;;;6.40;99.82;100575.03;10416180;28;20134;-80
2022/04/05 13:31:25;;;;;;;1.40;0.90;;;;;;;6.40;100.00;100571.53;10449680;28;20052;-73
2022/04/05 13:36:26;;;;;;;4.70;2.80;;;;;;;6.52;100.00;100577.53;10456380;28;20515;-73
2022/04/05 13:41:27;;;;;;;9.98;4.38;;;;;;;6.66;99.91;100608.81;10461794;28;20049;-74
2022/04/05 13:46:31;;;;;;;6.40;3.97;;;;;;;6.59;100.00;100589.22;10462064;28;20408;-73
2022/04/05 13:51:34;;;;;;;4.00;1.80;;;;;;;6.59;99.65;100605.91;10460960;28;20080;-73
2022/04/05 13:56:36;;;;;;;7.55;3.58;;;;;;;6.57;100.00;100601.72;10450569;28;20045;-74
2022/04/05 14:01:38;;;;;;;11.88;5.18;;;;;;;6.59;100.00;100581.31;10452591;28;20091;-73
2022/04/05 14:06:39;;;;;;;4.68;2.50;;;;;;;6.57;99.87;100591.16;10462250;28;20088;-73
2022/04/05 14:11:43;;;;;;;35.75;12.82;;;;;;;5.71;100.00;100443.91;10454213;28;20045;-73
2022/04/05 14:16:43;;;;;;;20.60;7.15;;;;;;;5.93;100.00;100458.72;10447159;28;20049;-73
2022/04/05 14:21:45;;;;;;;24.20;9.57;;;;;;;6.84;99.62;100582.59;10450169;28;20040;-73
2022/04/05 14:26:45;;;;;;;9.02;3.20;;;;;;;5.54;100.00;100347.06;10447549;28;20053;-73
2022/04/05 14:31:46;;;;;;;4.97;2.53;;;;;;;6.08;100.00;100434.59;10446234;28;20049;-74
2022/04/05 14:36:47;;;;;;;5.32;2.10;;;;;;;6.88;100.00;100570.78;10446204;28;20072;-72
2022/04/05 14:41:49;;;;;;;3.80;1.98;;;;;;;6.66;100.00;100531.44;10445987;28;20041;-73
2022/04/05 14:46:50;;;;;;;5.57;2.25;;;;;;;5.92;99.30;100408.69;10443975;28;20053;-74
2022/04/05 14:51:52;;;;;;;3.30;1.75;;;;;;;6.84;99.28;100553.53;10437119;28;20068;-72
2022/04/05 14:56:53;;;;;;;2.60;1.70;;;;;;;6.82;98.75;100561.63;10409215;28;20408;-73
2022/04/05 15:01:54;;;;;;;2.25;1.30;;;;;;;6.79;99.04;100550.47;10455603;28;20048;-73
2022/04/05 15:07:05;;;;;;;3.85;2.80;;;;;;;6.05;98.26;100424.31;10452488;28;20045;-73
2022/04/05 15:12:08;;;;;;;3.17;1.73;;;;;;;5.96;98.44;100407.50;10450942;28;20037;-73
2022/04/05 15:17:08;;;;;;;2.53;1.65;;;;;;;6.03;98.88;100427.06;10452609;28;20055;-74
2022/04/05 15:22:09;;;;;;;6.60;4.80;;;;;;;6.81;98.97;100548.53;10455775;28;20040;-73
2022/04/05 15:27:10;;;;;;;8.65;3.83;;;;;;;6.70;98.70;100528.41;10438472;28;20045;-73
2022/04/05 15:32:14;;;;;;;4.30;2.83;;;;;;;6.63;98.03;100503.50;10435300;28;20044;-73
2022/04/05 15:37:17;;;;;;;6.60;2.90;;;;;;;6.64;97.34;100507.81;10456401;28;20083;-75
2022/04/05 15:42:20;;;;;;;5.28;2.70;;;;;;;5.92;96.93;100404.28;10458217;28;20048;-74
2022/04/05 15:47:21;;;;;;;3.95;1.95;;;;;;;6.62;97.78;100528.25;10457926;28;20508;-74
2022/04/05 15:52:22;;;;;;;3.22;2.15;;;;;;;6.55;97.87;100530.59;10457463;28;20065;-74
2022/04/05 15:57:24;;;;;;;4.82;1.45;;;;;;;5.63;98.22;100379.66;10456581;28;20128;-74
2022/04/05 16:02:25;;;;;;;5.90;2.05;;;;;;;6.55;97.60;100530.59;10457415;28;20148;-74
2022/04/05 16:07:26;;;;;;;10.32;2.22;;;;;;;6.46;98.52;100514.75;10457076;28;20074;-74
2022/04/05 16:12:28;;;;;;;5.80;2.65;;;;;;;6.37;98.43;100514.63;10456411;28;20049;-74
2022/04/05 16:17:29;;;;;;;9.52;2.63;;;;;;;5.85;98.23;100431.31;10437814;28;20507;-73
2022/04/05 16:22:29;;;;;;;4.55;2.70;;;;;;;6.38;98.04;100531.28;10456248;28;20037;-73
2022/04/05 16:27:30;;;;;;;3.42;2.45;;;;;;;5.66;98.24;100430.31;10438174;28;20552;-74
2022/04/05 16:32:31;;;;;;;3.78;2.38;;;;;;;6.36;98.53;100541.13;10437989;28;20182;-73
2022/04/05 16:37:34;;;;;;;3.63;2.15;;;;;;;6.40;98.72;100553.91;10451332;28;20048;-74
2022/04/05 16:42:35;;;;;;;5.65;3.55;;;;;;;6.52;98.75;100564.34;10455032;28;20048;-73
2022/04/05 16:47:36;;;;;;;5.57;3.45;;;;;;;6.38;98.89;100547.94;10455710;28;20044;-73
2022/04/05 16:52:36;;;;;;;3.20;2.38;;;;;;;6.53;98.85;100579.22;10455146;28;20052;-73
2022/04/05 16:57:37;;;;;;;5.47;2.30;;;;;;;6.30;98.78;100549.56;10454421;28;20064;-73
2022/04/05 17:02:38;;;;;;;2.90;2.00;;;;;;;6.53;99.06;100579.22;10455001;28;20140;-73
2022/04/05 17:07:39;;;;;;;3.25;2.40;;;;;;;6.26;98.65;100541.09;10437195;28;20036;-75
2022/04/05 17:12:40;;;;;;;5.47;3.25;;;;;;;6.45;99.34;100569.31;10452923;28;20045;-76
2022/04/05 17:17:41;;;;;;;3.08;2.30;;;;;;;6.61;99.37;100589.91;10454455;28;20037;-75
2022/04/05 17:22:42;;;;;;;3.95;2.78;;;;;;;6.55;98.57;100596.59;10453791;28;20052;-75
2022/04/05 17:27:43;;;;;;;3.95;2.40;;;;;;;6.32;98.84;100564.31;10436472;28;20046;-74
2022/04/05 17:32:44;;;;;;;5.07;2.40;;;;;;;6.39;99.41;100569.88;10453656;28;20064;-75
2022/04/05 17:37:46;;;;;;;4.57;2.50;;;;;;;6.58;99.71;100604.25;10454666;28;20040;-75
2022/04/05 17:42:47;;;;;;;3.75;2.38;;;;;;;5.98;99.73;100494.38;10453853;28;20068;-75
2022/04/05 17:47:48;;;;;;;3.75;2.40;;;;;;;6.58;100.00;100592.81;10453500;28;20041;-75
2022/04/05 17:52:49;;;;;;;4.13;2.30;;;;;;;6.49;100.00;100575.16;10453527;28;20057;-76
2022/04/05 17:57:50;;;;;;;4.30;3.03;;;;;;;5.72;99.60;100450.03;10452815;28;20501;-75
2022/04/05 18:02:50;;;;;;;3.67;2.55;;;;;;;6.33;100.00;100551.94;10433632;28;20147;-74
2022/04/05 18:07:51;;;;;;;4.97;3.00;;;;;;;6.54;100.00;100583.50;10449076;28;20041;-75
2022/04/05 18:12:58;;;;;;;3.97;2.97;;;;;;;6.45;100.00;100571.97;10451718;28;20404;-75
2022/04/05 18:17:59;;;;;;;4.22;3.05;;;;;;;6.33;100.00;100550.13;10446912;28;20071;-76
2022/04/05 18:23:00;;;;;;;3.47;2.55;;;;;;;5.80;100.00;100462.50;10453470;28;20033;-75
2022/04/05 18:28:01;;;;;;;4.03;2.78;;;;;;;6.43;100.00;100555.44;10459004;28;20563;-75
2022/04/05 18:33:02;;;;;;;5.47;3.13;;;;;;;6.12;100.00;100504.56;10458023;28;20040;-75
2022/04/05 18:38:03;;;;;;;5.18;3.00;;;;;;;5.77;100.00;100445.16;10450271;28;20041;-75
2022/04/05 18:43:06;;;;;;;4.72;2.70;;;;;;;6.38;100.00;100526.81;10435434;28;20053;-75
2022/04/05 18:48:06;;;;;;;4.32;3.10;;;;;;;6.42;100.00;100518.63;10459946;28;20639;-75
2022/04/05 18:53:07;;;;;;;5.78;3.72;;;;;;;6.53;100.00;100527.25;10459632;28;20139;-75
2022/04/05 18:58:11;;;;;;;6.10;4.13;;;;;;;6.55;100.00;100519.19;10459533;28;20041;-75
2022/04/05 19:03:12;;;;;;;6.37;4.80;;;;;;;6.54;100.00;100526.28;10459159;28;20051;-75
2022/04/05 19:08:13;;;;;;;5.13;3.95;;;;;;;5.91;100.00;100423.69;10458933;28;20041;-75
2022/04/05 19:13:16;;;;;;;8.15;3.92;;;;;;;6.59;100.00;100517.97;10458965;28;20041;-75
2022/04/05 19:18:16;;;;;;;8.88;4.07;;;;;;;6.30;100.00;100459.88;10459079;28;20044;-75
2022/04/05 19:23:17;;;;;;;6.30;3.67;;;;;;;6.42;100.00;100473.78;10451970;28;20516;-76
2022/04/05 19:28:18;;;;;;;5.30;4.38;;;;;;;6.17;100.00;100425.84;10416909;28;20140;-75
2022/04/05 19:33:19;;;;;;;5.35;3.90;;;;;;;6.10;99.94;100420.31;10446769;28;20079;-76
2022/04/05 19:38:20;;;;;;;4.90;3.70;;;;;;;6.04;100.00;100412.09;10439675;28;20053;-75
2022/04/05 19:43:21;;;;;;;6.32;3.47;;;;;;;6.54;99.79;100512.25;10427103;28;20046;-75
2022/04/05 19:48:22;;;;;;;8.93;4.20;;;;;;;6.40;100.00;100495.00;10414614;28;20037;-75
2022/04/05 19:53:23;;;;;;;7.65;4.72;;;;;;;5.66;100.00;100376.75;10416306;28;20088;-74
2022/04/05 19:58:24;;;;;;;8.18;5.97;;;;;;;5.93;99.69;100440.25;10415606;28;20450;-75
2022/04/05 20:03:24;;;;;;;8.88;6.00;;;;;;;6.36;100.00;100506.81;10438465;28;20033;-75
2022/04/05 20:08:25;;;;;;;9.32;5.68;;;;;;;6.35;100.00;100500.72;10456607;28;20044;-75
2022/04/05 20:13:26;;;;;;;10.90;5.63;;;;;;;6.37;100.00;100498.78;10456403;28;20492;-75
2022/04/05 20:18:42;;;;;;;8.05;5.53;;;;;;;6.37;99.89;100493.50;10455694;28;20493;-75
2022/04/05 20:23:43;;;;;;;9.15;5.43;;;;;;;6.37;99.71;100487.38;10455582;28;20120;-75
2022/04/05 20:28:44;;;;;;;11.75;7.53;;;;;;;5.91;100.00;100412.31;10455970;28;20557;-75
2022/04/05 20:33:45;;;;;;;10.15;5.90;;;;;;;6.31;100.00;100461.53;10455699;28;20140;-75
2022/04/05 20:38:46;;;;;;;11.52;5.72;;;;;;;6.25;100.00;100446.25;10455011;28;20385;-75
2022/04/05 20:43:47;;;;;;;14.77;7.22;;;;;;;6.38;100.00;100460.84;10455439;28;20052;-75
2022/04/05 20:48:48;;;;;;;10.40;7.70;;;;;;;5.94;100.00;100388.34;10455370;28;20041;-75
2022/04/05 20:53:49;;;;;;;12.00;7.63;;;;;;;5.60;100.00;100314.88;10436709;28;20448;-75
2022/04/05 20:58:49;;;;;;;12.00;8.40;;;;;;;5.68;99.91;100308.91;10454320;28;20500;-75
2022/04/05 21:03:50;;;;;;;11.60;8.18;;;;;;;6.48;100.00;100429.19;10454865;28;20120;-75
2022/04/05 21:08:51;;;;;;;6.90;4.80;;;;;;;6.35;99.81;100412.81;10454718;28;20044;-75
2022/04/05 21:13:53;;;;;;;6.28;3.75;;;;;;;6.31;99.03;100404.34;10454012;28;20098;-75
2022/04/05 21:18:54;;;;;;;4.07;3.00;;;;;;;6.42;98.85;100415.72;10453820;28;20037;-75
2022/04/05 21:23:56;;;;;;;3.83;3.00;;;;;;;5.56;99.24;100265.22;10454830;28;20037;-75
2022/04/05 21:34:15;;;;;;;4.88;2.70;;;;;;;6.33;98.35;100385.72;10454035;28;20041;-75
2022/04/05 21:39:16;;;;;;;3.63;2.53;;;;;;;5.82;97.43;100287.44;10436590;28;20118;-75
2022/04/05 21:44:19;;;;;;;5.03;3.10;;;;;;;6.54;97.95;100398.78;10453800;28;20037;-75
2022/04/05 21:49:21;;;;;;;4.33;2.83;;;;;;;6.53;98.32;100390.03;10453777;28;20052;-75
2022/04/05 21:54:22;;;;;;;4.75;2.90;;;;;;;6.39;98.58;100356.13;10453331;28;20519;-75
2022/04/05 21:59:24;;;;;;;5.13;2.85;;;;;;;6.50;97.94;100365.72;10459270;28;20068;-76
2022/04/05 22:04:25;;;;;;;4.45;3.47;;;;;;;6.56;98.47;100365.97;10462042;28;20496;-76
2022/04/05 22:09:26;;;;;;;9.05;4.47;;;;;;;6.05;97.82;100292.47;10460868;28;20040;-75
2022/04/05 22:14:28;;;;;;;5.60;3.72;;;;;;;6.58;97.22;100377.25;10442781;28;20052;-75
2022/04/05 22:19:29;;;;;;;6.72;3.63;;;;;;;6.60;97.45;100371.81;10460402;28;20041;-75
2022/04/05 22:24:30;;;;;;;5.30;3.72;;;;;;;6.50;98.00;100365.72;10461789;28;20045;-76
2022/04/05 22:29:30;;;;;;;4.82;3.58;;;;;;;6.51;98.26;100376.13;10460454;28;20091;-75
2022/04/05 22:34:32;;;;;;;5.70;3.53;;;;;;;5.77;98.65;100246.63;10459648;28;20045;-75
2022/04/05 22:39:36;;;;;;;6.10;3.50;;;;;;;6.48;98.46;100359.75;10460067;28;20040;-75
2022/04/05 22:44:37;;;;;;;5.13;3.85;;;;;;;6.50;98.65;100376.28;10460573;28;20048;-75
2022/04/05 22:49:37;;;;;;;5.68;4.07;;;;;;;6.48;98.77;100346.56;10459077;28;20393;-75
2022/04/05 22:54:38;;;;;;;4.55;3.53;;;;;;;6.37;98.97;100326.41;10458737;28;20060;-75
2022/04/05 22:59:41;;;;;;;7.32;4.28;;;;;;;6.29;98.51;100300.75;10459058;28;20547;-75
2022/04/05 23:04:42;;;;;;;5.47;4.45;;;;;;;5.58;99.14;100189.50;10458757;28;20124;-75
2022/04/05 23:09:43;;;;;;;14.10;4.28;;;;;;;6.35;99.29;100308.09;10453719;28;20571;-75
2022/04/05 23:14:44;;;;;;;7.65;4.75;;;;;;;6.52;98.87;100321.53;10458801;28;20045;-76
2022/04/05 23:19:45;;;;;;;7.80;4.93;;;;;;;6.37;98.56;100305.31;10458659;28;20493;-76
2022/04/05 23:24:46;;;;;;;9.23;4.97;;;;;;;6.45;97.96;100309.88;10440221;28;20168;-75